Time;durP1;ratioP1;P1;durP2;ratioP2;P2;SDS_P1;SDS_P2;PMS_P1;PMS_P2;Temp;Humidity;BMP_temperature;BMP_pressure;BME280_temperature;BME280_humidity;BME280_pressure;Samples;Min_cycle;Max_cycle;Signal;HPM_P1;HPM_P2
2022/01/31 00:02:03;;;;;;;19.45;4.40;;;;;;;-0.32;100.00;96712.09;5011486;28;20197;-70
2022/01/31 00:04:29;;;;;;;20.13;4.80;;;;;;;-0.33;100.00;96724.41;5016432;28;20037;-72
2022/01/31 00:06:56;;;;;;;18.13;3.80;;;;;;;-0.29;100.00;96709.13;5012462;28;20040;-70
2022/01/31 00:09:23;;;;;;;14.32;4.15;;;;;;;-0.36;100.00;96705.56;5013708;28;20363;-72
2022/01/31 00:11:59;;;;;;;16.27;3.78;;;;;;;-0.24;100.00;96698.88;5016840;28;20037;-73
2022/01/31 00:15:02;;;;;;;13.80;4.10;;;;;;;-0.25;100.00;96688.53;5014703;28;20045;-73
2022/01/31 00:17:17;;;;;;;16.33;3.65;;;;;;;-0.32;100.00;96689.22;5012783;28;20144;-72
2022/01/31 00:19:44;;;;;;;23.48;3.67;;;;;;;-0.35;100.00;96667.75;5017544;28;20020;-70
2022/01/31 00:22:12;;;;;;;16.63;4.05;;;;;;;-0.38;100.00;96640.00;5013530;28;20164;-73
2022/01/31 00:24:39;;;;;;;16.75;4.03;;;;;;;-0.53;100.00;96622.53;5012054;28;20041;-73
2022/01/31 00:27:06;;;;;;;13.70;3.40;;;;;;;-0.60;100.00;96611.88;5015567;28;20483;-72
2022/01/31 00:29:34;;;;;;;16.00;3.90;;;;;;;-0.65;100.00;96609.78;5014710;28;20327;-70
2022/01/31 00:31:59;;;;;;;14.77;3.67;;;;;;;-0.58;100.00;96583.59;5028331;28;20049;-70
2022/01/31 00:34:25;;;;;;;14.88;3.67;;;;;;;-0.59;100.00;96563.56;5015822;28;20446;-71
2022/01/31 00:36:51;;;;;;;14.30;3.65;;;;;;;-0.67;100.00;96546.06;5027111;28;20037;-71
2022/01/31 00:39:17;;;;;;;14.73;4.05;;;;;;;-0.58;100.00;96552.88;5010987;28;20041;-70
2022/01/31 00:41:43;;;;;;;18.80;3.65;;;;;;;-0.52;100.00;96527.69;5018707;28;20049;-71
2022/01/31 00:44:23;;;;;;;27.48;4.53;;;;;;;-0.48;100.00;96507.13;5015737;28;20087;-71
2022/01/31 00:47:15;;;;;;;7.32;1.70;;;;;;;-0.50;100.00;96485.47;2850190;28;10002322;-70
2022/01/31 00:49:48;;;;;;;10.57;2.60;;;;;;;-0.44;100.00;96472.41;3631167;28;10001177;-71
2022/01/31 00:52:13;;;;;;;5.88;1.90;;;;;;;-0.57;100.00;96454.63;5025422;28;20042;-70
2022/01/31 00:54:39;;;;;;;14.63;2.97;;;;;;;-0.64;100.00;96453.69;5031108;28;20427;-72
2022/01/31 00:57:05;;;;;;;6.78;2.22;;;;;;;-0.66;100.00;96447.81;5027599;28;20420;-70
2022/01/31 00:59:30;;;;;;;20.05;3.75;;;;;;;-0.62;100.00;96456.97;5028635;28;20519;-71
2022/01/31 01:01:56;;;;;;;16.52;3.33;;;;;;;-0.53;100.00;96454.28;5027926;28;20041;-72
2022/01/31 01:04:21;;;;;;;18.38;3.40;;;;;;;-0.52;100.00;96458.53;5032916;28;20037;-72
2022/01/31 01:06:47;;;;;;;17.48;3.28;;;;;;;-0.71;100.00;96447.50;5033263;28;20520;-72
2022/01/31 01:09:13;;;;;;;6.53;1.55;;;;;;;-0.88;100.00;96430.25;5034986;28;20040;-70
2022/01/31 01:11:38;;;;;;;21.77;3.60;;;;;;;-0.96;100.00;96410.13;5035045;28;20102;-72
2022/01/31 01:14:04;;;;;;;12.40;2.88;;;;;;;-1.06;100.00;96412.19;5034094;28;20025;-71
2022/01/31 01:16:30;;;;;;;7.28;2.25;;;;;;;-1.14;100.00;96389.44;5031736;28;20046;-71
2022/01/31 01:18:56;;;;;;;11.23;3.10;;;;;;;-1.11;100.00;96369.88;5031421;28;20021;-71
2022/01/31 01:21:21;;;;;;;9.18;3.25;;;;;;;-1.06;100.00;96362.28;5034594;28;20146;-73
2022/01/31 01:23:47;;;;;;;11.25;3.08;;;;;;;-1.01;100.00;96367.84;5036116;28;20091;-72
2022/01/31 01:26:13;;;;;;;12.93;2.75;;;;;;;-0.88;100.00;96362.78;5027185;28;20128;-70
2022/01/31 01:28:38;;;;;;;11.73;3.00;;;;;;;-0.81;100.00;96356.81;5032015;28;20372;-70
2022/01/31 01:31:04;;;;;;;7.95;2.45;;;;;;;-0.75;100.00;96366.59;5027458;28;20045;-72
2022/01/31 01:33:38;;;;;;;14.98;3.00;;;;;;;-0.64;100.00;96368.78;5032966;28;20182;-70
2022/01/31 01:36:04;;;;;;;;;;;;;;;-0.61;100.00;96358.72;5031030;28;20037;-71
2022/01/31 01:38:30;;;;;;;10.43;2.65;;;;;;;-0.64;100.00;96348.56;5049656;28;20289;-70
2022/01/31 01:40:59;;;;;;;12.32;3.03;;;;;;;-0.60;100.00;96339.34;5046130;28;20526;-73
2022/01/31 01:43:26;;;;;;;10.23;1.70;;;;;;;-0.49;100.00;96335.41;5047044;28;20092;-72
2022/01/31 01:45:53;;;;;;;13.32;3.17;;;;;;;-0.51;100.00;96326.09;5047707;28;20048;-71
2022/01/31 01:48:20;;;;;;;8.98;2.88;;;;;;;-0.40;100.00;96329.06;5052392;28;20260;-72
2022/01/31 01:50:47;;;;;;;19.13;3.08;;;;;;;-0.37;100.00;96318.19;5036434;28;20480;-72
2022/01/31 01:53:13;;;;;;;7.68;2.58;;;;;;;-0.41;100.00;96311.66;5032799;28;20352;-70
2022/01/31 01:55:40;;;;;;;12.95;3.13;;;;;;;-0.43;100.00;96292.63;5050388;28;20042;-70
2022/01/31 01:58:14;;;;;;;11.68;2.90;;;;;;;-0.49;100.00;96271.50;5046714;28;20078;-71
2022/01/31 02:00:50;;;;;;;16.88;2.95;;;;;;;-0.43;100.00;96278.66;5033401;28;20178;-69
2022/01/31 02:03:18;;;;;;;9.95;2.80;;;;;;;-0.39;100.00;96265.00;5048799;28;20224;-70
2022/01/31 02:05:45;;;;;;;14.43;2.97;;;;;;;-0.34;100.00;96267.03;5048561;28;20072;-70
2022/01/31 02:08:17;;;;;;;20.50;3.75;;;;;;;-0.33;100.00;96266.84;5030470;28;20033;-70
2022/01/31 02:10:42;;;;;;;19.58;4.07;;;;;;;-0.32;100.00;96263.22;5049076;28;20037;-71
2022/01/31 02:13:17;;;;;;;18.17;4.40;;;;;;;-0.33;100.00;96260.78;5033182;28;20041;-70
2022/01/31 02:16:17;;;;;;;16.20;3.90;;;;;;;-0.24;100.00;96248.34;5016875;28;20472;-70
2022/01/31 02:18:54;;;;;;;14.00;3.20;;;;;;;-0.23;100.00;96239.44;5031637;28;20098;-71
2022/01/31 02:21:41;;;;;;;11.82;3.47;;;;;;;-0.36;100.00;96219.91;5029926;28;20637;-70
2022/01/31 02:24:32;;;;;;;12.10;4.45;;;;;;;-0.51;100.00;96205.97;5019219;28;20139;-72
2022/01/31 02:27:35;;;;;;;13.25;3.03;;;;;;;-0.47;100.00;96173.06;5035883;28;20098;-70
2022/01/31 02:30:07;;;;;;;12.43;2.30;;;;;;;-0.48;100.00;96162.72;5035123;28;20036;-71
2022/01/31 02:32:38;;;;;;;15.52;2.70;;;;;;;-0.52;100.00;96148.34;5053716;28;20979;-72
2022/01/31 02:35:06;;;;;;;10.02;2.38;;;;;;;-0.59;100.00;96156.16;5053165;28;20621;-70
2022/01/31 02:37:32;;;;;;;19.50;3.28;;;;;;;-0.61;100.00;96142.41;5055971;28;20641;-71
2022/01/31 02:40:24;;;;;;;24.33;3.30;;;;;;;-0.60;100.00;96123.00;5036643;28;20539;-71
2022/01/31 02:42:51;;;;;;;10.63;2.92;;;;;;;-0.62;100.00;96117.94;5037840;28;20025;-72
2022/01/31 02:45:18;;;;;;;10.05;3.42;;;;;;;-0.69;100.00;96108.34;5033337;28;20048;-70
2022/01/31 02:47:51;;;;;;;13.30;2.88;;;;;;;-0.69;100.00;96098.66;5051585;28;20041;-70
2022/01/31 02:50:18;;;;;;;18.10;3.25;;;;;;;-0.62;100.00;96088.22;5047144;28;20489;-72
2022/01/31 02:52:48;;;;;;;17.77;3.55;;;;;;;-0.58;100.00;96068.41;5051775;28;20033;-73
2022/01/31 02:55:17;;;;;;;16.20;3.47;;;;;;;-0.56;100.00;96063.78;5033588;28;20128;-73
2022/01/31 02:57:43;;;;;;;13.10;2.60;;;;;;;-0.54;100.00;96053.91;5037084;28;20283;-71
2022/01/31 03:00:11;;;;;;;15.32;3.63;;;;;;;-0.46;100.00;96051.16;5037903;28;20044;-70
2022/01/31 03:02:56;;;;;;;14.52;3.05;;;;;;;-0.46;100.00;96052.97;5033528;28;20054;-72
2022/01/31 03:05:22;;;;;;;14.30;3.70;;;;;;;-0.44;100.00;96041.25;5036063;28;20423;-72
2022/01/31 03:07:48;;;;;;;9.43;3.05;;;;;;;-0.38;100.00;96016.84;5050450;28;20040;-71
2022/01/31 03:10:13;;;;;;;10.70;3.05;;;;;;;-0.34;100.00;95999.66;5050479;28;20036;-70
2022/01/31 03:12:39;;;;;;;6.90;2.10;;;;;;;-0.35;100.00;95984.09;5035584;28;20129;-69
2022/01/31 03:15:05;;;;;;;14.10;3.20;;;;;;;-0.31;100.00;95977.44;5034257;28;20451;-71
2022/01/31 03:17:58;;;;;;;14.70;2.80;;;;;;;-0.41;100.00;95969.88;5030505;28;20037;-70
2022/01/31 03:20:24;;;;;;;20.67;3.28;;;;;;;-0.41;100.00;95948.03;5051664;28;20065;-70
2022/01/31 03:22:51;;;;;;;14.43;3.10;;;;;;;-0.40;100.00;95924.19;5033282;28;20033;-72
2022/01/31 03:25:17;;;;;;;13.18;2.35;;;;;;;-0.44;100.00;95893.22;5048523;28;20905;-70
2022/01/31 03:27:44;;;;;;;8.23;2.28;;;;;;;-0.41;100.00;95898.91;5038593;28;20139;-70
2022/01/31 03:30:14;;;;;;;15.15;3.25;;;;;;;-0.42;100.00;95910.41;5050965;28;20045;-71
2022/01/31 03:32:40;;;;;;;13.57;3.67;;;;;;;-0.40;100.00;95899.69;5051492;28;20123;-70
2022/01/31 03:35:07;;;;;;;20.88;4.43;;;;;;;-0.44;100.00;95885.34;5049330;28;20044;-72
2022/01/31 03:37:34;;;;;;;16.95;3.70;;;;;;;-0.42;100.00;95893.84;5037248;28;20037;-69
2022/01/31 03:39:59;;;;;;;12.77;3.45;;;;;;;-0.31;100.00;95883.59;5036322;28;20040;-72
2022/01/31 03:42:25;;;;;;;19.52;4.30;;;;;;;-0.31;100.00;95870.47;5032280;28;20048;-70
2022/01/31 03:44:51;;;;;;;13.10;3.42;;;;;;;-0.36;100.00;95866.78;5031512;28;20386;-70
2022/01/31 03:47:21;;;;;;;15.52;3.67;;;;;;;-0.32;100.00;95866.19;5033498;28;20075;-71
2022/01/31 03:49:46;;;;;;;15.32;3.08;;;;;;;-0.43;100.00;95874.63;5036352;28;20040;-70
2022/01/31 03:52:15;;;;;;;18.75;3.17;;;;;;;-0.47;100.00;95851.53;5050854;28;20156;-72
2022/01/31 03:54:45;;;;;;;10.40;3.00;;;;;;;-0.52;100.00;95832.94;5052540;28;20049;-70
2022/01/31 03:57:11;;;;;;;7.72;3.33;;;;;;;-0.62;100.00;95844.59;5053003;28;20530;-70
2022/01/31 03:59:58;;;;;;;14.45;3.58;;;;;;;-0.59;100.00;95823.19;5051061;28;20067;-72
2022/01/31 04:02:24;;;;;;;15.40;3.17;;;;;;;-0.56;100.00;95819.34;5048384;28;20140;-70
2022/01/31 04:04:49;;;;;;;11.32;3.28;;;;;;;-0.57;100.00;95800.13;5035041;28;20036;-72
2022/01/31 04:07:14;;;;;;;13.98;3.70;;;;;;;-0.61;100.00;95801.53;5033696;28;20036;-73
2022/01/31 04:09:40;;;;;;;14.13;3.53;;;;;;;-0.69;100.00;95787.75;5035148;28;20037;-71
2022/01/31 04:12:06;;;;;;;7.97;2.58;;;;;;;-0.76;100.00;95786.91;5035105;28;20084;-73
2022/01/31 04:14:31;;;;;;;9.85;3.40;;;;;;;-0.64;100.00;95786.16;5037830;28;20029;-70
2022/01/31 04:16:59;;;;;;;12.30;4.00;;;;;;;-0.60;100.00;95781.34;5035175;28;20036;-71
2022/01/31 04:19:24;;;;;;;13.60;3.42;;;;;;;-0.58;100.00;95784.56;5035828;28;20033;-70
2022/01/31 04:21:50;;;;;;;8.85;2.65;;;;;;;-0.63;100.00;95782.50;5032505;28;20048;-72
2022/01/31 04:24:22;;;;;;;4.25;2.35;;;;;;;-0.55;100.00;95765.78;5034400;28;20079;-73
2022/01/31 04:26:57;;;;;;;;;;;;;;;-0.54;100.00;95762.16;5033486;28;20044;-70
2022/01/31 04:29:22;;;;;;;2.65;1.35;;;;;;;-0.53;100.00;95758.53;5033422;28;19920;-72
2022/01/31 04:31:51;;;;;;;4.65;2.10;;;;;;;-0.44;100.00;95746.00;5031419;28;20701;-70
2022/01/31 04:34:17;;;;;;;5.18;2.13;;;;;;;-0.49;100.00;95751.84;5030881;28;20064;-71
2022/01/31 04:36:42;;;;;;;6.65;2.70;;;;;;;-0.54;100.00;95749.03;5033931;28;20889;-72
2022/01/31 04:39:15;;;;;;;3.53;1.92;;;;;;;-0.53;100.00;95766.41;5032973;28;20033;-71
2022/01/31 04:41:40;;;;;;;5.97;2.75;;;;;;;-0.47;100.00;95738.50;5034348;28;20132;-70
2022/01/31 04:44:07;;;;;;;3.25;1.48;;;;;;;-0.51;100.00;95738.09;5034839;28;20028;-70
2022/01/31 04:46:33;;;;;;;4.03;2.15;;;;;;;-0.57;100.00;95738.88;5034944;28;20116;-70
2022/01/31 04:48:58;;;;;;;4.95;2.10;;;;;;;-0.51;100.00;95743.34;5036311;28;20044;-72
2022/01/31 04:51:24;;;;;;;2.67;1.55;;;;;;;-0.49;100.00;95728.19;5031498;28;20332;-73
2022/01/31 04:53:49;;;;;;;4.50;2.22;;;;;;;-0.42;100.00;95726.41;5036352;28;20044;-72
2022/01/31 04:56:14;;;;;;;3.67;1.38;;;;;;;-0.45;100.00;95734.69;5035652;28;20036;-71
2022/01/31 04:58:40;;;;;;;4.38;1.65;;;;;;;-0.41;100.00;95722.75;5036022;28;20415;-72
2022/01/31 05:01:06;;;;;;;6.13;2.13;;;;;;;-0.39;100.00;95710.25;5029912;28;20684;-70
2022/01/31 05:03:31;;;;;;;8.38;1.60;;;;;;;-0.38;100.00;95703.16;5036310;28;20029;-71
2022/01/31 05:05:57;;;;;;;6.40;1.55;;;;;;;-0.46;100.00;95692.84;5034131;28;20217;-73
2022/01/31 05:08:26;;;;;;;2.55;1.25;;;;;;;-0.44;100.00;95701.31;5032989;28;20033;-72
2022/01/31 05:10:52;;;;;;;5.97;2.35;;;;;;;-0.40;100.00;95682.31;5032391;28;20033;-73
2022/01/31 05:13:17;;;;;;;3.08;1.95;;;;;;;-0.40;100.00;95682.31;5036362;28;20036;-72
2022/01/31 05:15:44;;;;;;;3.97;2.13;;;;;;;-0.36;100.00;95686.19;5034780;28;20051;-71
2022/01/31 05:18:10;;;;;;;3.35;1.42;;;;;;;-0.34;100.00;95673.63;5030503;28;20029;-71
2022/01/31 05:20:35;;;;;;;3.30;1.77;;;;;;;-0.35;100.00;95673.84;5036235;28;20037;-73
2022/01/31 05:23:01;;;;;;;3.10;1.60;;;;;;;-0.29;100.00;95663.34;5035058;28;20338;-72
2022/01/31 05:25:27;;;;;;;2.42;1.25;;;;;;;-0.27;100.00;95673.66;5037043;28;20039;-70
2022/01/31 05:27:52;;;;;;;3.75;2.13;;;;;;;-0.28;100.00;95659.69;5035058;28;20055;-71
2022/01/31 05:30:18;;;;;;;2.47;1.20;;;;;;;-0.28;100.00;95659.69;5033294;28;20110;-72
2022/01/31 05:32:44;;;;;;;3.30;1.30;;;;;;;-0.26;100.00;95661.31;5039135;28;20048;-71
2022/01/31 05:35:10;;;;;;;4.25;2.05;;;;;;;-0.28;100.00;95664.97;5030760;28;20041;-73
2022/01/31 05:37:35;;;;;;;2.28;1.20;;;;;;;-0.35;100.00;95660.69;5035116;28;20029;-71
2022/01/31 05:40:03;;;;;;;2.33;1.40;;;;;;;-0.26;100.00;95650.78;5037468;28;20053;-73
2022/01/31 05:42:28;;;;;;;4.78;1.80;;;;;;;-0.23;100.00;95659.13;5036127;28;20269;-71
2022/01/31 05:44:54;;;;;;;2.53;1.00;;;;;;;-0.22;100.00;95652.03;5038503;28;20064;-73
2022/01/31 05:47:19;;;;;;;2.70;1.30;;;;;;;-0.21;100.00;95672.06;5034955;28;20219;-71
2022/01/31 05:49:45;;;;;;;1.73;1.00;;;;;;;-0.16;100.00;95673.06;5032687;28;20041;-70
2022/01/31 05:52:11;;;;;;;2.33;1.20;;;;;;;-0.12;100.00;95660.31;5050803;28;20094;-70
2022/01/31 05:54:39;;;;;;;3.03;1.73;;;;;;;-0.05;100.00;95650.63;5036045;28;20036;-72
2022/01/31 05:57:05;;;;;;;3.10;1.58;;;;;;;-0.02;100.00;95655.47;5033819;28;20041;-73
2022/01/31 05:59:31;;;;;;;6.43;1.85;;;;;;;0.03;100.00;95646.97;5035425;28;20037;-70
2022/01/31 06:02:01;;;;;;;8.88;2.67;;;;;;;0.07;100.00;95659.50;5029603;28;20088;-71
2022/01/31 06:04:30;;;;;;;1.63;0.93;;;;;;;0.14;100.00;95636.66;5030035;28;20546;-73
2022/01/31 06:06:57;;;;;;;8.82;2.58;;;;;;;0.16;100.00;95632.00;5026758;28;20066;-73
2022/01/31 06:09:22;;;;;;;3.70;2.10;;;;;;;0.20;100.00;95640.28;5036084;28;20033;-72
2022/01/31 06:11:49;;;;;;;4.18;1.02;;;;;;;0.27;100.00;95628.75;5031292;28;20033;-72
2022/01/31 06:14:16;;;;;;;5.47;1.45;;;;;;;0.31;100.00;95626.50;5033371;28;20498;-72
2022/01/31 06:16:42;;;;;;;3.35;1.83;;;;;;;0.35;100.00;95622.47;5033816;28;20471;-73
2022/01/31 06:19:07;;;;;;;2.70;1.15;;;;;;;0.35;100.00;95621.66;5032706;28;20430;-72
2022/01/31 06:21:33;;;;;;;4.45;1.92;;;;;;;0.45;100.00;95622.03;5028741;28;20103;-71
2022/01/31 06:23:58;;;;;;;17.02;2.67;;;;;;;0.47;100.00;95597.16;5033686;28;20036;-73
2022/01/31 06:26:24;;;;;;;11.88;1.92;;;;;;;0.52;100.00;95610.47;5052228;28;20041;-72
2022/01/31 06:29:06;;;;;;;9.75;3.17;;;;;;;0.56;100.00;95584.56;5045879;28;20578;-70
2022/01/31 06:31:40;;;;;;;4.63;1.83;;;;;;;0.57;100.00;95601.97;5043896;28;20037;-70
2022/01/31 06:34:06;;;;;;;10.93;2.35;;;;;;;0.65;100.00;95614.91;5031336;28;20044;-73
2022/01/31 06:36:32;;;;;;;5.88;2.67;;;;;;;0.67;100.00;95615.50;5027393;28;20040;-70
2022/01/31 06:38:58;;;;;;;8.98;3.20;;;;;;;0.68;100.00;95603.97;5027988;28;20034;-72
2022/01/31 06:41:23;;;;;;;4.13;2.33;;;;;;;0.80;100.00;95619.94;5030064;28;20033;-71
2022/01/31 06:43:51;;;;;;;15.00;2.65;;;;;;;0.79;100.00;95608.59;5032251;28;20542;-72
2022/01/31 06:46:16;;;;;;;4.80;2.97;;;;;;;0.77;100.00;95629.03;5033591;28;20051;-72
2022/01/31 06:48:42;;;;;;;18.17;2.05;;;;;;;0.79;100.00;95605.16;5035060;28;20041;-72
2022/01/31 06:51:08;;;;;;;6.80;2.70;;;;;;;0.81;100.00;95611.81;5028569;28;20538;-70
2022/01/31 06:53:35;;;;;;;9.73;3.40;;;;;;;0.80;100.00;95594.41;5032910;28;20080;-70
2022/01/31 06:56:01;;;;;;;4.85;2.35;;;;;;;0.87;100.00;95609.38;5033188;28;20038;-71
2022/01/31 06:58:27;;;;;;;5.53;3.50;;;;;;;0.87;100.00;95601.50;5036161;28;20920;-72
2022/01/31 07:00:54;;;;;;;14.40;4.15;;;;;;;0.89;100.00;95592.34;5030776;28;20045;-72
2022/01/31 07:03:20;;;;;;;9.75;3.97;;;;;;;0.91;100.00;95600.03;5033385;28;20090;-70
2022/01/31 07:05:46;;;;;;;8.77;4.22;;;;;;;0.98;100.00;95604.25;5030251;28;20076;-71
2022/01/31 07:08:12;;;;;;;10.25;2.92;;;;;;;1.00;100.00;95594.31;5030100;28;20116;-70
2022/01/31 07:10:38;;;;;;;11.48;3.67;;;;;;;1.04;100.00;95594.72;5033765;28;20090;-71
2022/01/31 07:13:24;;;;;;;13.60;3.97;;;;;;;1.07;100.00;95589.81;5036849;28;20041;-72
2022/01/31 07:15:50;;;;;;;7.60;3.17;;;;;;;1.08;100.00;95573.00;5034008;28;20040;-72
2022/01/31 07:18:16;;;;;;;9.52;3.30;;;;;;;1.10;100.00;95584.16;5032712;28;20052;-70
2022/01/31 07:20:44;;;;;;;9.70;3.10;;;;;;;1.11;100.00;95587.59;5032892;28;20041;-70
2022/01/31 07:23:50;;;;;;;8.35;3.58;;;;;;;1.10;100.00;95594.69;5031487;28;20397;-71
2022/01/31 07:25:55;;;;;;;10.18;4.22;;;;;;;1.09;100.00;95585.19;5033634;28;20045;-73
2022/01/31 07:28:21;;;;;;;19.27;2.65;;;;;;;1.07;100.00;95578.47;5037534;28;20623;-70
2022/01/31 07:30:50;;;;;;;14.73;3.55;;;;;;;1.11;100.00;95574.41;5038731;28;20041;-71
2022/01/31 07:33:17;;;;;;;15.48;2.75;;;;;;;1.11;100.00;95575.22;5033009;28;20340;-70
2022/01/31 07:35:45;;;;;;;7.32;2.25;;;;;;;1.14;100.00;95563.44;5049892;28;20037;-71
2022/01/31 07:38:11;;;;;;;10.73;2.80;;;;;;;1.17;100.00;95565.69;5027440;28;20033;-72
2022/01/31 07:40:38;;;;;;;18.58;3.72;;;;;;;1.27;100.00;95560.75;5046241;28;20724;-72
2022/01/31 07:43:04;;;;;;;7.38;2.28;;;;;;;1.29;100.00;95566.59;5029179;28;20049;-72
2022/01/31 07:45:30;;;;;;;5.50;2.55;;;;;;;1.37;100.00;95574.25;5033248;28;20471;-70
2022/01/31 07:47:55;;;;;;;16.33;2.47;;;;;;;1.54;100.00;95568.47;5035575;28;20040;-70
2022/01/31 07:50:21;;;;;;;14.00;2.08;;;;;;;1.54;100.00;95569.28;5030870;28;20098;-70
2022/01/31 07:52:47;;;;;;;10.85;2.50;;;;;;;1.61;100.00;95561.31;5035312;28;20036;-71
2022/01/31 07:55:13;;;;;;;10.80;2.83;;;;;;;1.52;100.00;95559.97;5034919;28;20118;-73
2022/01/31 07:57:41;;;;;;;14.27;2.40;;;;;;;1.48;100.00;95559.59;5051038;28;20045;-70
2022/01/31 08:00:09;;;;;;;6.88;1.98;;;;;;;1.44;100.00;95552.31;5033388;28;20248;-72
2022/01/31 08:02:41;;;;;;;16.13;4.30;;;;;;;1.37;100.00;95563.72;5038105;28;20052;-70
2022/01/31 08:05:08;;;;;;;7.93;2.33;;;;;;;1.37;100.00;95568.19;5037078;28;20041;-70
2022/01/31 08:07:37;;;;;;;20.55;3.53;;;;;;;1.44;100.00;95553.13;5035413;28;20116;-71
2022/01/31 08:10:05;;;;;;;8.27;2.28;;;;;;;1.42;100.00;95552.53;5033535;28;20479;-72
2022/01/31 08:12:33;;;;;;;14.95;2.47;;;;;;;1.33;100.00;95545.91;5037305;28;20037;-71
2022/01/31 08:15:04;;;;;;;5.65;2.20;;;;;;;1.18;100.00;95554.13;5036132;28;20535;-71
2022/01/31 08:17:32;;;;;;;7.88;2.22;;;;;;;1.15;100.00;95570.31;5031517;28;20079;-70
2022/01/31 08:19:57;;;;;;;8.32;3.03;;;;;;;1.10;100.00;95563.06;5032366;28;20483;-71
2022/01/31 08:22:23;;;;;;;5.30;2.80;;;;;;;1.11;100.00;95566.50;5034656;28;20056;-72
2022/01/31 08:24:48;;;;;;;3.90;1.75;;;;;;;1.06;100.00;95566.31;5034375;28;20126;-70
2022/01/31 08:27:14;;;;;;;4.85;1.92;;;;;;;0.97;100.00;95572.88;5035917;28;20052;-71
2022/01/31 08:29:40;;;;;;;5.93;2.63;;;;;;;0.90;100.00;95578.16;5032404;28;20037;-71
2022/01/31 08:32:22;;;;;;;4.38;2.22;;;;;;;0.90;100.00;95570.25;5034103;28;20454;-71
2022/01/31 08:37:33;;;;;;;3.70;1.15;;;;;;;0.78;100.00;95580.66;5041124;28;20037;-71
2022/01/31 08:39:58;;;;;;;2.67;1.27;;;;;;;0.74;100.00;95594.44;5037685;28;20276;-71
2022/01/31 08:42:24;;;;;;;3.05;1.25;;;;;;;0.63;100.00;95568.75;5030447;28;20038;-71
2022/01/31 08:44:50;;;;;;;6.25;1.52;;;;;;;0.66;100.00;95566.50;5035839;28;20600;-71
2022/01/31 08:47:16;;;;;;;2.95;0.93;;;;;;;0.65;100.00;95578.06;5034039;28;20142;-71
2022/01/31 08:49:42;;;;;;;3.90;1.45;;;;;;;0.65;100.00;95575.41;5030620;28;20352;-72
2022/01/31 08:52:09;;;;;;;5.20;2.20;;;;;;;0.69;100.00;95563.44;5031026;28;20340;-71
2022/01/31 08:54:35;;;;;;;2.92;1.10;;;;;;;0.62;100.00;95560.00;5034553;28;20040;-72
2022/01/31 08:57:01;;;;;;;1.05;0.63;;;;;;;0.65;100.00;95564.88;5033052;28;20099;-72
2022/01/31 08:59:28;;;;;;;2.20;0.90;;;;;;;0.58;100.00;95574.63;5033067;28;20387;-70
2022/01/31 09:02:03;;;;;;;1.50;0.68;;;;;;;0.53;100.00;95561.28;5035542;28;20308;-71
2022/01/31 09:04:47;;;;;;;1.50;0.90;;;;;;;0.60;100.00;95569.97;5037620;28;20562;-70
2022/01/31 09:07:14;;;;;;;8.13;1.30;;;;;;;0.67;100.00;95541.78;5035320;28;20113;-70
2022/01/31 09:09:41;;;;;;;2.35;1.40;;;;;;;0.70;100.00;95554.56;5033735;28;20434;-70
2022/01/31 09:12:08;;;;;;;3.20;1.65;;;;;;;0.75;100.00;95548.63;5032751;28;20036;-71
2022/01/31 09:14:35;;;;;;;2.50;1.30;;;;;;;0.80;100.00;95536.47;5032315;28;20126;-72
2022/01/31 09:17:01;;;;;;;2.35;1.15;;;;;;;0.81;100.00;95542.53;5034211;28;20040;-71
2022/01/31 09:19:29;;;;;;;4.40;1.40;;;;;;;0.75;100.00;95524.94;5033493;28;20476;-70
2022/01/31 09:21:55;;;;;;;3.97;1.63;;;;;;;0.81;100.00;95551.25;5034599;28;20321;-70
2022/01/31 09:24:20;;;;;;;6.47;2.33;;;;;;;0.87;100.00;95533.00;5036764;28;20451;-72
2022/01/31 09:26:47;;;;;;;7.20;2.53;;;;;;;0.83;100.00;95528.13;5030466;28;20095;-70
2022/01/31 09:29:12;;;;;;;2.28;1.17;;;;;;;0.87;100.00;95541.72;5035811;28;20052;-70
2022/01/31 09:31:38;;;;;;;4.65;1.60;;;;;;;0.92;100.00;95559.50;5032303;28;20328;-70
2022/01/31 09:34:06;;;;;;;4.90;1.67;;;;;;;0.96;100.00;95540.44;5032242;28;20049;-70
2022/01/31 09:36:32;;;;;;;6.07;1.73;;;;;;;0.94;100.00;95539.84;5034325;28;20296;-71
2022/01/31 09:38:58;;;;;;;3.97;1.95;;;;;;;1.05;100.00;95528.63;4336891;28;10000133;-72
2022/01/31 09:41:26;;;;;;;3.20;1.45;;;;;;;1.00;100.00;95532.91;5032716;28;20387;-72
2022/01/31 09:44:07;;;;;;;2.53;1.33;;;;;;;0.94;100.00;95539.03;5027661;28;20297;-72
2022/01/31 09:47:04;;;;;;;8.57;1.20;;;;;;;0.94;100.00;95536.41;5031511;28;20207;-70
2022/01/31 09:49:30;;;;;;;4.15;1.95;;;;;;;0.93;100.00;95530.31;5026108;28;20036;-71
2022/01/31 09:51:56;;;;;;;4.22;1.67;;;;;;;0.88;100.00;95513.53;5025518;28;20048;-69
2022/01/31 09:54:25;;;;;;;1.83;1.00;;;;;;;0.85;100.00;95522.66;5031256;28;20495;-71
2022/01/31 09:56:53;;;;;;;5.30;2.22;;;;;;;0.88;100.00;95513.53;5030933;28;20024;-71
2022/01/31 09:59:19;;;;;;;5.65;1.98;;;;;;;0.87;100.00;95520.63;5032299;28;20056;-70
2022/01/31 10:01:52;;;;;;;4.75;1.48;;;;;;;0.90;100.00;95507.03;5028363;28;20041;-71
2022/01/31 10:04:29;;;;;;;4.75;1.38;;;;;;;0.99;100.00;95502.31;5030189;28;20380;-72
2022/01/31 10:06:57;;;;;;;3.97;1.00;;;;;;;0.94;100.00;95504.81;5024001;28;20198;-71
2022/01/31 10:09:24;;;;;;;1.77;0.93;;;;;;;0.93;100.00;95508.44;5029786;28;20045;-72
2022/01/31 10:12:05;;;;;;;3.22;0.95;;;;;;;0.97;100.00;95493.81;5026033;28;20067;-71
2022/01/31 10:17:25;;;;;;;1.67;0.90;;;;;;;0.98;100.00;95509.41;5031245;28;20041;-70
2022/01/31 10:19:55;;;;;;;3.55;1.42;;;;;;;0.91;100.00;95502.56;5029757;28;20041;-71
2022/01/31 10:22:25;;;;;;;2.30;1.10;;;;;;;0.92;100.00;95501.53;5030979;28;20047;-70
2022/01/31 10:24:54;;;;;;;1.92;1.00;;;;;;;0.84;100.00;95511.31;5032631;28;20124;-70
2022/01/31 10:27:29;;;;;;;5.18;1.48;;;;;;;0.89;100.00;95500.16;5033001;28;20864;-71
2022/01/31 10:30:05;;;;;;;4.68;1.50;;;;;;;0.87;100.00;95512.72;5030800;28;20029;-72
2022/01/31 10:32:35;;;;;;;1.15;0.75;;;;;;;0.89;100.00;95515.97;5031456;28;20135;-70
2022/01/31 10:35:04;;;;;;;4.00;1.25;;;;;;;0.88;100.00;95501.19;5031661;28;20452;-69
2022/01/31 10:37:31;;;;;;;3.53;1.30;;;;;;;0.84;100.00;95498.13;5027063;28;20127;-71
2022/01/31 10:45:38;;;;;;;1.77;1.00;;;;;;;0.80;100.00;95483.00;5036188;28;20198;-71
2022/01/31 10:53:42;;;;;;;2.47;1.52;;;;;;;0.76;100.00;95503.66;5037638;28;20036;-71
2022/01/31 10:56:08;;;;;;;3.15;1.42;;;;;;;0.73;100.00;95533.06;5034368;28;20492;-71
2022/01/31 10:58:34;;;;;;;2.30;1.08;;;;;;;0.68;100.00;95511.78;5033389;28;20045;-72
2022/01/31 11:01:16;;;;;;;5.28;1.58;;;;;;;0.64;100.00;95500.09;5040353;28;20051;-70
2022/01/31 11:03:45;;;;;;;3.25;1.27;;;;;;;0.68;100.00;95500.44;5035439;28;20040;-69
2022/01/31 11:06:11;;;;;;;2.05;0.80;;;;;;;0.72;100.00;95502.47;5035395;28;20032;-70
2022/01/31 11:08:37;;;;;;;1.73;0.75;;;;;;;0.72;100.00;95505.09;5035571;28;20040;-69
2022/01/31 11:11:04;;;;;;;1.58;0.80;;;;;;;0.64;100.00;95507.16;5035079;28;20048;-69
2022/01/31 11:13:34;;;;;;;1.67;0.85;;;;;;;0.60;100.00;95514.66;5036580;28;20052;-70
2022/01/31 11:16:00;;;;;;;1.37;0.70;;;;;;;0.61;100.00;95518.09;5038651;28;20281;-71
2022/01/31 11:18:31;;;;;;;2.13;0.57;;;;;;;0.65;100.00;95500.88;5039600;28;20040;-69
2022/01/31 11:21:07;;;;;;;3.05;1.15;;;;;;;0.58;100.00;95505.38;5036505;28;20367;-70
2022/01/31 11:23:38;;;;;;;1.40;0.63;;;;;;;0.57;100.00;95512.47;5035346;28;20099;-69
2022/01/31 11:26:10;;;;;;;1.83;0.93;;;;;;;0.65;100.00;95509.59;4819330;28;10001148;-70
2022/01/31 11:28:40;;;;;;;1.38;0.82;;;;;;;0.62;100.00;95510.00;5038974;28;20850;-71
2022/01/31 11:31:07;;;;;;;2.90;1.65;;;;;;;0.57;100.00;95496.66;5034082;28;20045;-71
2022/01/31 11:33:34;;;;;;;3.17;1.08;;;;;;;0.62;100.00;95502.09;5035563;28;20111;-71
2022/01/31 11:36:00;;;;;;;1.83;1.00;;;;;;;0.67;100.00;95525.97;5029059;28;20723;-69
2022/01/31 11:38:27;;;;;;;4.78;1.25;;;;;;;0.65;100.00;95541.19;5034678;28;20033;-71
2022/01/31 11:40:59;;;;;;;2.40;0.85;;;;;;;0.59;100.00;95528.03;5032985;28;20050;-70
2022/01/31 11:43:24;;;;;;;;;;;;;;;0.55;100.00;95520.56;5033364;28;20036;-71
2022/01/31 11:45:52;;;;;;;5.82;1.83;;;;;;;0.50;100.00;95512.47;5028727;28;19917;-71
2022/01/31 11:48:23;;;;;;;2.13;1.10;;;;;;;0.47;100.00;95514.75;5030896;28;20044;-70
2022/01/31 11:50:55;;;;;;;2.65;0.77;;;;;;;0.49;100.00;95529.31;5029553;28;20048;-71